Time;durP1;ratioP1;P1;durP2;ratioP2;P2;SDS_P1;SDS_P2;PMS_P1;PMS_P2;Temp;Humidity;BMP_temperature;BMP_pressure;BME280_temperature;BME280_humidity;BME280_pressure;Samples;Min_cycle;Max_cycle;Signal;HPM_P1;HPM_P2
2023/12/13 00:00:30;;;;;;;12.70;6.07;;;9.40;99.90;;;;;;5047500;28;20021;-70
2023/12/13 00:02:57;;;;;;;12.85;5.53;;;9.40;99.90;;;;;;5047903;28;20021;-70
2023/12/13 00:05:24;;;;;;;16.23;6.10;;;9.40;99.90;;;;;;5047453;28;20025;-71
2023/12/13 00:07:50;;;;;;;12.77;6.00;;;9.40;99.90;;;;;;5047545;28;20025;-70
2023/12/13 00:10:15;;;;;;;13.50;5.75;;;9.40;99.90;;;;;;5047396;28;20067;-71
2023/12/13 00:12:41;;;;;;;15.32;5.78;;;9.40;99.90;;;;;;5047912;28;20033;-70
2023/12/13 00:15:08;;;;;;;12.75;5.25;;;9.40;99.90;;;;;;5047127;28;20049;-70
2023/12/13 00:17:33;;;;;;;8.73;4.85;;;9.40;99.90;;;;;;5047870;28;20112;-71
2023/12/13 00:19:59;;;;;;;12.45;5.20;;;9.40;99.90;;;;;;5047499;28;20108;-70
2023/12/13 00:22:25;;;;;;;11.80;4.93;;;9.40;99.90;;;;;;5047427;28;20596;-70
2023/12/13 00:24:50;;;;;;;11.32;4.78;;;9.30;99.90;;;;;;5046943;28;20512;-71
2023/12/13 00:27:16;;;;;;;12.55;4.30;;;9.30;99.90;;;;;;5047573;28;20020;-71
2023/12/13 00:29:42;;;;;;;12.48;4.18;;;9.30;99.90;;;;;;5046951;28;20398;-70
2023/12/13 00:32:07;;;;;;;14.55;4.10;;;9.30;99.90;;;;;;5047221;28;20132;-71
2023/12/13 00:34:33;;;;;;;7.78;4.03;;;9.30;99.90;;;;;;5047044;28;20028;-71
2023/12/13 00:36:59;;;;;;;12.93;4.70;;;9.20;99.90;;;;;;5047029;28;20073;-71
2023/12/13 00:39:24;;;;;;;11.20;4.70;;;9.20;99.90;;;;;;5046671;28;20386;-70
2023/12/13 00:41:50;;;;;;;12.40;5.00;;;9.20;99.90;;;;;;5046892;28;20447;-71
2023/12/13 00:44:16;;;;;;;10.13;4.40;;;9.20;99.90;;;;;;5045441;28;20534;-71
2023/12/13 00:46:41;;;;;;;9.15;4.18;;;9.20;99.90;;;;;;5045505;28;20029;-71
2023/12/13 00:49:08;;;;;;;14.60;4.68;;;9.20;99.90;;;;;;5045488;28;20045;-70
2023/12/13 00:51:33;;;;;;;13.25;5.05;;;9.20;99.90;;;;;;5045404;28;20405;-70
2023/12/13 00:54:00;;;;;;;10.80;5.03;;;9.20;99.90;;;;;;5045821;28;20021;-71
2023/12/13 00:56:25;;;;;;;11.25;5.30;;;9.20;99.90;;;;;;5046653;28;20169;-70
2023/12/13 00:58:51;;;;;;;13.88;4.60;;;9.20;99.90;;;;;;5046656;28;20394;-71
2023/12/13 01:01:16;;;;;;;10.82;4.53;;;9.20;99.90;;;;;;5046639;28;20017;-70
2023/12/13 01:03:42;;;;;;;10.27;4.82;;;9.20;99.90;;;;;;5046789;28;20021;-71
2023/12/13 01:06:11;;;;;;;12.38;4.70;;;9.20;99.90;;;;;;5046432;28;20063;-71
2023/12/13 01:08:38;;;;;;;12.38;5.28;;;9.20;99.90;;;;;;5046698;28;20107;-71
2023/12/13 01:11:10;;;;;;;16.33;5.60;;;9.30;99.90;;;;;;5046576;28;20087;-71
2023/12/13 01:13:37;;;;;;;12.43;4.72;;;9.20;99.90;;;;;;5046608;28;20036;-71
2023/12/13 01:16:02;;;;;;;13.95;4.97;;;9.20;99.90;;;;;;5046516;28;20052;-71
2023/12/13 01:18:28;;;;;;;10.30;4.47;;;9.20;99.90;;;;;;5045319;28;20403;-71
2023/12/13 01:20:54;;;;;;;10.65;4.82;;;9.20;99.90;;;;;;5046171;28;20052;-71
2023/12/13 01:23:19;;;;;;;11.45;4.60;;;9.20;99.90;;;;;;5047027;28;20021;-71
2023/12/13 01:25:45;;;;;;;16.40;4.18;;;9.20;99.90;;;;;;5046394;28;20024;-71
2023/12/13 01:28:11;;;;;;;12.45;4.15;;;9.20;99.90;;;;;;5046518;28;20433;-72
2023/12/13 01:30:36;;;;;;;9.30;4.03;;;9.20;99.90;;;;;;5045863;28;20112;-71
2023/12/13 01:33:02;;;;;;;15.35;3.97;;;9.20;99.90;;;;;;5046786;28;20074;-71
2023/12/13 01:35:28;;;;;;;7.93;3.80;;;9.20;99.90;;;;;;5045858;28;20025;-71
2023/12/13 01:37:53;;;;;;;13.82;4.15;;;9.10;99.90;;;;;;5046514;28;20031;-71
2023/12/13 01:40:19;;;;;;;9.23;3.70;;;9.10;99.90;;;;;;5044519;28;20021;-71
2023/12/13 01:42:45;;;;;;;8.15;3.30;;;9.10;99.90;;;;;;5046378;28;20548;-71
2023/12/13 01:45:10;;;;;;;10.32;3.35;;;9.10;99.90;;;;;;5044755;28;20043;-71
2023/12/13 01:47:37;;;;;;;7.68;3.47;;;9.10;99.90;;;;;;5046201;28;20052;-71
2023/12/13 01:50:04;;;;;;;10.90;3.22;;;9.10;99.90;;;;;;5046137;28;20060;-71
2023/12/13 01:52:30;;;;;;;8.57;3.70;;;9.10;99.90;;;;;;5046233;28;20122;-71
2023/12/13 01:54:56;;;;;;;8.73;3.08;;;9.10;99.90;;;;;;5045765;28;20025;-71
2023/12/13 01:57:22;;;;;;;14.00;3.60;;;9.10;99.90;;;;;;5046267;28;20060;-72
2023/12/13 01:59:47;;;;;;;9.93;3.40;;;9.10;99.90;;;;;;5046928;28;20092;-71
2023/12/13 02:02:13;;;;;;;10.98;4.43;;;9.10;99.90;;;;;;5050146;28;20032;-71
2023/12/13 02:04:41;;;;;;;10.45;3.90;;;9.10;99.90;;;;;;5049788;28;20032;-71
2023/12/13 02:07:06;;;;;;;7.82;3.35;;;9.10;99.90;;;;;;5049928;28;20074;-71
2023/12/13 02:09:32;;;;;;;8.32;3.50;;;9.00;99.90;;;;;;5049613;28;20116;-71
2023/12/13 02:11:58;;;;;;;9.50;3.40;;;9.00;99.90;;;;;;5049723;28;20021;-71
2023/12/13 02:14:25;;;;;;;9.85;3.20;;;9.00;99.90;;;;;;5049881;28;20039;-71
2023/12/13 02:16:53;;;;;;;6.45;2.88;;;9.10;99.90;;;;;;5049501;28;20041;-71
2023/12/13 02:19:18;;;;;;;9.30;3.15;;;9.00;99.90;;;;;;5049642;28;20557;-71
2023/12/13 02:21:44;;;;;;;8.15;2.90;;;9.00;99.90;;;;;;5049455;28;20186;-71
2023/12/13 02:24:10;;;;;;;11.57;3.30;;;9.00;99.90;;;;;;5049800;28;20098;-71
2023/12/13 02:26:40;;;;;;;8.30;3.35;;;9.00;99.90;;;;;;5049608;28;20024;-71
2023/12/13 02:29:07;;;;;;;10.90;2.90;;;9.00;99.90;;;;;;5048277;28;20584;-71
2023/12/13 02:31:33;;;;;;;11.10;3.20;;;9.10;99.90;;;;;;5049165;28;20103;-71
2023/12/13 02:33:59;;;;;;;8.68;2.90;;;9.00;99.90;;;;;;5049660;28;20028;-71
2023/12/13 02:36:25;;;;;;;6.85;2.70;;;9.00;99.90;;;;;;5049123;28;20053;-71
2023/12/13 02:38:50;;;;;;;7.63;2.67;;;9.00;99.90;;;;;;5049065;28;20028;-71
2023/12/13 02:41:16;;;;;;;6.22;2.25;;;9.00;99.90;;;;;;5049358;28;20031;-71
2023/12/13 02:43:41;;;;;;;4.10;1.50;;;9.00;99.90;;;;;;5049630;28;20017;-71
2023/12/13 02:46:07;;;;;;;5.45;2.00;;;9.00;99.90;;;;;;5049077;28;20472;-72
2023/12/13 02:48:33;;;;;;;6.68;2.30;;;9.00;99.90;;;;;;5048214;28;20111;-72
2023/12/13 02:50:59;;;;;;;7.75;2.00;;;9.00;99.90;;;;;;5047444;28;20393;-71
2023/12/13 02:53:25;;;;;;;9.98;2.22;;;9.00;99.90;;;;;;5049147;28;20036;-72
2023/12/13 02:55:51;;;;;;;4.53;2.25;;;9.00;99.90;;;;;;5048784;28;20139;-71
2023/12/13 02:58:17;;;;;;;6.97;2.13;;;9.00;99.90;;;;;;5049072;28;20096;-71
2023/12/13 03:00:42;;;;;;;4.40;1.63;;;9.00;99.90;;;;;;5048606;28;20021;-71
2023/12/13 03:03:08;;;;;;;9.90;2.35;;;9.00;99.90;;;;;;5048894;28;20029;-72
2023/12/13 03:05:34;;;;;;;6.55;2.08;;;9.00;99.90;;;;;;5048759;28;20036;-71
2023/12/13 03:07:59;;;;;;;6.53;2.40;;;9.00;99.90;;;;;;5047767;28;20435;-71
2023/12/13 03:10:25;;;;;;;6.80;2.60;;;9.10;99.90;;;;;;5048260;28;20024;-71
2023/12/13 03:12:51;;;;;;;5.80;2.28;;;9.00;99.90;;;;;;5047938;28;20580;-71
2023/12/13 03:15:17;;;;;;;8.82;3.10;;;9.00;99.90;;;;;;5048513;28;20025;-71
2023/12/13 03:17:42;;;;;;;7.47;3.08;;;9.00;99.90;;;;;;5048598;28;20398;-71
2023/12/13 03:20:09;;;;;;;6.10;2.90;;;9.00;99.90;;;;;;5048162;28;20029;-71
2023/12/13 03:22:35;;;;;;;8.13;2.90;;;9.00;99.90;;;;;;5048508;28;20040;-71
2023/12/13 03:25:00;;;;;;;6.03;2.65;;;9.00;99.90;;;;;;5048474;28;20474;-72
2023/12/13 03:27:26;;;;;;;6.05;2.80;;;9.00;99.90;;;;;;5048300;28;20364;-71
2023/12/13 03:29:52;;;;;;;9.68;3.20;;;8.90;99.90;;;;;;5048419;28;20086;-71
2023/12/13 03:32:17;;;;;;;8.93;3.00;;;8.90;99.90;;;;;;5048193;28;20104;-71
2023/12/13 03:34:43;;;;;;;8.43;3.10;;;9.00;99.90;;;;;;5048071;28;20487;-71
2023/12/13 03:37:09;;;;;;;9.30;4.10;;;9.00;99.90;;;;;;5048016;28;20056;-71
2023/12/13 03:39:35;;;;;;;11.65;5.00;;;9.00;99.90;;;;;;5047964;28;20040;-71
2023/12/13 03:42:00;;;;;;;12.32;5.43;;;9.00;99.90;;;;;;5048258;28;20021;-71
2023/12/13 03:44:26;;;;;;;13.25;4.75;;;9.00;99.90;;;;;;5046818;28;20021;-71
2023/12/13 03:46:53;;;;;;;19.50;8.35;;;9.00;99.90;;;;;;5047772;28;20596;-71
2023/12/13 03:49:19;;;;;;;21.63;8.57;;;9.00;99.90;;;;;;5047911;28;20506;-71
2023/12/13 03:51:47;;;;;;;21.38;9.10;;;9.00;99.90;;;;;;5047498;28;20052;-70
2023/12/13 03:54:14;;;;;;;18.02;8.73;;;9.00;99.90;;;;;;5048208;28;20032;-71
2023/12/13 03:56:40;;;;;;;23.98;10.32;;;9.00;99.90;;;;;;5047595;28;20478;-71
2023/12/13 03:59:06;;;;;;;18.65;8.95;;;9.10;99.90;;;;;;5047869;28;20478;-71
2023/12/13 04:01:31;;;;;;;17.60;9.73;;;9.10;99.90;;;;;;5047420;28;20028;-71
2023/12/13 04:03:57;;;;;;;27.42;10.05;;;9.10;99.90;;;;;;5047806;28;20032;-70
2023/12/13 04:06:22;;;;;;;24.73;10.43;;;9.10;99.90;;;;;;5047574;28;20100;-70
2023/12/13 04:08:48;;;;;;;21.75;10.38;;;9.10;99.90;;;;;;5047767;28;20489;-70
2023/12/13 04:11:14;;;;;;;19.75;10.50;;;9.10;99.90;;;;;;5047733;28;20025;-71
2023/12/13 04:13:39;;;;;;;22.35;10.55;;;9.10;99.90;;;;;;5047707;28;20025;-70
2023/12/13 04:16:05;;;;;;;23.73;10.20;;;9.10;99.90;;;;;;5047481;28;20712;-71
2023/12/13 04:18:31;;;;;;;21.98;10.55;;;9.10;99.90;;;;;;5047549;28;20048;-71
2023/12/13 04:20:57;;;;;;;21.98;10.00;;;9.10;99.90;;;;;;5047118;28;20032;-71
2023/12/13 04:23:23;;;;;;;21.52;9.63;;;9.10;99.90;;;;;;5047208;28;20031;-72
2023/12/13 04:25:48;;;;;;;23.67;10.90;;;9.10;99.90;;;;;;5045612;28;20025;-72
2023/12/13 04:28:14;;;;;;;22.40;10.55;;;9.10;99.90;;;;;;5047426;28;20016;-71
2023/12/13 04:30:40;;;;;;;23.92;10.30;;;9.10;99.90;;;;;;5047081;28;20414;-72
2023/12/13 04:33:05;;;;;;;23.42;9.68;;;9.10;99.90;;;;;;5047717;28;20029;-71
2023/12/13 04:35:34;;;;;;;21.83;10.00;;;9.10;99.90;;;;;;5046622;28;20467;-71
2023/12/13 04:37:59;;;;;;;23.15;10.05;;;9.10;99.90;;;;;;5045846;28;20116;-71
2023/12/13 04:40:25;;;;;;;23.38;10.27;;;9.10;99.90;;;;;;5047226;28;20174;-72
2023/12/13 04:42:51;;;;;;;24.95;10.77;;;9.10;99.90;;;;;;5046796;28;20074;-72
2023/12/13 04:45:17;;;;;;;21.95;10.30;;;9.20;99.90;;;;;;5046734;28;20040;-72
2023/12/13 04:47:42;;;;;;;27.75;9.95;;;9.10;99.90;;;;;;5045430;28;20048;-72
2023/12/13 04:50:09;;;;;;;29.58;10.32;;;9.10;99.90;;;;;;5045721;28;20409;-72
2023/12/13 04:52:34;;;;;;;25.70;10.48;;;9.20;99.90;;;;;;5045390;28;20391;-72
2023/12/13 04:55:00;;;;;;;28.65;9.75;;;9.10;99.90;;;;;;5047201;28;20017;-72
2023/12/13 04:57:26;;;;;;;22.67;10.07;;;9.20;99.90;;;;;;5046776;28;20464;-71
2023/12/13 04:59:52;;;;;;;21.40;9.48;;;9.20;99.90;;;;;;5046724;28;20104;-71
2023/12/13 05:02:17;;;;;;;20.80;9.23;;;9.20;99.90;;;;;;5046900;28;20162;-71
2023/12/13 05:04:43;;;;;;;26.70;9.18;;;9.20;99.90;;;;;;5046885;28;20120;-71
2023/12/13 05:07:09;;;;;;;26.23;9.48;;;9.20;99.90;;;;;;5046485;28;20110;-71
2023/12/13 05:09:35;;;;;;;24.88;9.70;;;9.20;99.90;;;;;;5046690;28;20032;-70
2023/12/13 05:12:01;;;;;;;21.85;9.90;;;9.20;99.90;;;;;;5046435;28;20029;-71
2023/12/13 05:14:26;;;;;;;29.80;9.93;;;9.20;99.90;;;;;;5046784;28;20048;-71
2023/12/13 05:16:52;;;;;;;19.17;8.40;;;9.20;99.90;;;;;;5046360;28;20016;-71
2023/12/13 05:19:18;;;;;;;24.77;8.85;;;9.20;99.90;;;;;;5045284;28;20079;-71
2023/12/13 05:21:43;;;;;;;26.35;9.68;;;9.20;99.90;;;;;;5045995;28;20116;-71
2023/12/13 05:24:09;;;;;;;24.55;9.23;;;9.20;99.90;;;;;;5046629;28;20558;-71
2023/12/13 05:26:35;;;;;;;18.45;8.60;;;9.20;99.90;;;;;;5046047;28;20017;-71
2023/12/13 05:29:02;;;;;;;22.02;8.38;;;9.30;99.90;;;;;;5046867;28;20040;-71
2023/12/13 05:31:28;;;;;;;25.73;8.57;;;9.20;99.90;;;;;;5046044;28;20475;-71
2023/12/13 05:33:54;;;;;;;20.88;8.52;;;9.30;99.90;;;;;;5046520;28;20021;-71
2023/12/13 05:36:20;;;;;;;26.38;9.15;;;9.30;99.90;;;;;;5050009;28;20091;-71
2023/12/13 05:38:46;;;;;;;24.25;8.63;;;9.30;99.90;;;;;;5050463;28;20053;-71
2023/12/13 05:41:12;;;;;;;22.20;8.68;;;9.30;99.90;;;;;;5050427;28;20021;-71
2023/12/13 05:43:37;;;;;;;24.70;8.80;;;9.30;99.90;;;;;;5050628;28;20498;-71
2023/12/13 05:46:10;;;;;;;27.40;9.20;;;9.30;99.90;;;;;;5050151;28;20017;-72
2023/12/13 05:48:35;;;;;;;27.05;9.10;;;9.20;99.90;;;;;;5050537;28;20021;-72
2023/12/13 05:51:01;;;;;;;23.20;9.60;;;9.20;99.90;;;;;;5049463;28;20021;-72
2023/12/13 05:53:28;;;;;;;31.33;9.75;;;9.20;99.90;;;;;;5050337;28;20393;-72
2023/12/13 05:55:54;;;;;;;33.97;9.05;;;9.20;99.90;;;;;;5049660;28;20324;-71
2023/12/13 05:58:19;;;;;;;30.17;9.98;;;9.20;99.90;;;;;;5050350;28;20043;-71
2023/12/13 06:00:45;;;;;;;26.58;9.02;;;9.20;99.90;;;;;;5048304;28;20493;-72
2023/12/13 06:03:11;;;;;;;23.52;9.20;;;9.20;99.90;;;;;;5050308;28;20446;-71
2023/12/13 06:05:36;;;;;;;30.83;9.43;;;9.20;99.90;;;;;;5049487;28;20033;-71
2023/12/13 06:08:02;;;;;;;24.15;8.93;;;9.20;99.90;;;;;;5050050;28;20108;-71
2023/12/13 06:10:28;;;;;;;26.60;8.60;;;9.20;99.90;;;;;;5049798;28;20033;-72
2023/12/13 06:12:53;;;;;;;30.58;10.43;;;9.30;99.90;;;;;;5049854;28;20490;-71
2023/12/13 06:15:21;;;;;;;29.75;10.38;;;9.20;99.90;;;;;;5049934;28;20036;-71
2023/12/13 06:17:47;;;;;;;28.95;9.70;;;9.20;99.90;;;;;;5049801;28;20028;-71
2023/12/13 06:20:13;;;;;;;26.73;9.43;;;9.20;99.90;;;;;;5048287;28;20560;-72
2023/12/13 06:22:38;;;;;;;27.83;9.63;;;9.20;99.90;;;;;;5049625;28;20020;-71
2023/12/13 06:25:05;;;;;;;34.85;10.70;;;9.20;99.90;;;;;;5049472;28;20092;-71
2023/12/13 06:27:30;;;;;;;30.05;9.98;;;9.30;99.90;;;;;;5048156;28;20028;-71
2023/12/13 06:29:56;;;;;;;28.17;9.95;;;9.30;99.90;;;;;;5049644;28;20437;-72
2023/12/13 06:32:21;;;;;;;29.75;10.10;;;9.20;99.90;;;;;;5049397;28;20055;-71
2023/12/13 06:34:47;;;;;;;30.08;10.15;;;9.30;99.90;;;;;;5049417;28;20067;-72
2023/12/13 06:37:13;;;;;;;28.85;10.07;;;9.30;99.90;;;;;;5047454;28;20056;-71
2023/12/13 06:39:38;;;;;;;36.33;10.63;;;9.30;99.90;;;;;;5049408;28;20516;-72
2023/12/13 06:42:08;;;;;;;27.88;9.93;;;9.30;99.90;;;;;;5047729;28;20108;-71
2023/12/13 06:44:37;;;;;;;24.45;9.80;;;9.30;99.90;;;;;;5049535;28;20043;-72
2023/12/13 06:47:03;;;;;;;24.45;9.27;;;9.30;99.90;;;;;;5033060;28;20025;-72
2023/12/13 06:49:30;;;;;;;38.25;12.10;;;9.30;99.90;;;;;;5048904;28;20086;-71
2023/12/13 06:52:00;;;;;;;27.48;10.48;;;9.30;99.90;;;;;;5048357;28;20032;-72
2023/12/13 06:54:28;;;;;;;34.35;11.20;;;9.30;99.90;;;;;;5047866;28;20079;-71
2023/12/13 06:56:54;;;;;;;38.00;10.88;;;9.30;99.90;;;;;;5048539;28;20115;-71
2023/12/13 06:59:20;;;;;;;26.27;10.02;;;9.30;99.90;;;;;;5039526;28;20033;-71
2023/12/13 07:01:45;;;;;;;37.83;10.68;;;9.30;99.90;;;;;;5041674;28;20091;-72
2023/12/13 07:04:11;;;;;;;31.77;10.38;;;9.30;99.90;;;;;;5031163;28;20483;-72
2023/12/13 07:06:37;;;;;;;32.20;9.63;;;9.30;99.90;;;;;;5040571;28;20499;-71
2023/12/13 07:09:03;;;;;;;31.58;10.07;;;9.30;99.90;;;;;;5035061;28;20035;-71
2023/12/13 07:11:29;;;;;;;27.13;7.85;;;9.30;99.90;;;;;;5035528;28;20024;-71
2023/12/13 07:13:55;;;;;;;13.82;6.03;;;9.30;99.90;;;;;;5035887;28;20513;-72
2023/12/13 07:16:21;;;;;;;15.43;4.90;;;9.20;99.90;;;;;;5042535;28;20061;-72
2023/12/13 07:18:46;;;;;;;23.88;6.28;;;9.20;99.90;;;;;;5035925;28;20074;-72
2023/12/13 07:21:12;;;;;;;19.75;5.45;;;9.20;99.90;;;;;;5048139;28;20025;-72
2023/12/13 07:23:39;;;;;;;17.50;5.60;;;9.20;99.90;;;;;;5045082;28;20029;-71
2023/12/13 07:26:06;;;;;;;22.17;6.45;;;9.20;99.90;;;;;;5047134;28;20400;-72
2023/12/13 07:28:31;;;;;;;35.60;10.45;;;9.20;99.90;;;;;;5048954;28;20028;-71
2023/12/13 07:30:57;;;;;;;31.48;10.35;;;9.20;99.90;;;;;;5040439;28;20086;-72
2023/12/13 07:33:23;;;;;;;29.00;10.20;;;9.20;99.90;;;;;;5044344;28;20021;-71
2023/12/13 07:35:49;;;;;;;40.28;11.18;;;9.20;99.90;;;;;;5047265;28;20099;-71
2023/12/13 07:38:15;;;;;;;34.08;10.80;;;9.20;99.90;;;;;;5046537;28;20025;-72
2023/12/13 07:40:44;;;;;;;33.33;10.25;;;9.20;99.90;;;;;;5047707;28;20120;-72
2023/12/13 07:43:10;;;;;;;34.95;10.68;;;9.20;99.90;;;;;;5046761;28;20512;-71
2023/12/13 07:45:36;;;;;;;39.42;11.07;;;9.30;99.90;;;;;;5045987;28;20028;-71
2023/12/13 07:48:03;;;;;;;33.00;10.30;;;9.20;99.90;;;;;;5048225;28;20017;-71
2023/12/13 07:50:29;;;;;;;29.02;11.00;;;9.20;99.90;;;;;;5037720;28;20120;-71
2023/12/13 07:52:56;;;;;;;35.83;10.18;;;9.30;99.90;;;;;;5038047;28;20021;-72
2023/12/13 07:55:23;;;;;;;36.70;11.05;;;9.30;99.90;;;;;;5041283;28;20032;-72
2023/12/13 07:57:49;;;;;;;28.35;9.88;;;9.20;99.90;;;;;;5047605;28;20534;-71
2023/12/13 08:00:15;;;;;;;32.97;10.00;;;9.30;99.90;;;;;;5032854;28;20041;-71
2023/12/13 08:02:41;;;;;;;31.98;10.77;;;9.20;99.90;;;;;;5039581;28;20579;-71
2023/12/13 08:05:08;;;;;;;33.30;10.25;;;9.30;99.90;;;;;;5043258;28;20100;-70
2023/12/13 08:07:35;;;;;;;29.92;10.07;;;9.30;99.90;;;;;;5035716;28;20027;-71
2023/12/13 08:10:01;;;;;;;30.70;10.43;;;9.30;99.90;;;;;;5041217;28;20022;-71
2023/12/13 08:12:27;;;;;;;37.88;10.27;;;9.30;99.90;;;;;;5045032;28;20029;-71
2023/12/13 08:14:53;;;;;;;31.65;10.70;;;9.30;99.90;;;;;;5039626;28;20115;-72
2023/12/13 08:17:18;;;;;;;26.90;10.00;;;9.30;99.90;;;;;;5045362;28;20021;-72
2023/12/13 08:19:44;;;;;;;32.08;10.75;;;9.30;99.90;;;;;;5047036;28;20068;-71
2023/12/13 08:22:10;;;;;;;34.95;11.00;;;9.30;99.90;;;;;;5041765;28;20021;-71
2023/12/13 08:24:35;;;;;;;33.17;10.55;;;9.30;99.90;;;;;;5046628;28;20036;-71
2023/12/13 08:27:01;;;;;;;35.75;11.68;;;9.30;99.90;;;;;;5045659;28;20497;-71
2023/12/13 08:29:27;;;;;;;32.42;10.60;;;9.30;99.90;;;;;;5046732;28;20061;-71
2023/12/13 08:31:52;;;;;;;37.75;10.70;;;9.30;99.90;;;;;;5041502;28;20029;-71
2023/12/13 08:34:18;;;;;;;30.98;11.82;;;9.30;99.90;;;;;;5036867;28;20029;-71
2023/12/13 08:36:44;;;;;;;36.45;11.13;;;9.40;99.90;;;;;;5030448;28;20049;-72
2023/12/13 08:39:11;;;;;;;32.05;10.73;;;9.30;99.90;;;;;;5047171;28;20029;-72
2023/12/13 08:41:36;;;;;;;32.45;11.85;;;9.40;99.90;;;;;;5044854;28;20211;-71
2023/12/13 08:44:02;;;;;;;34.10;10.90;;;9.40;99.90;;;;;;5039961;28;20016;-71
2023/12/13 08:46:28;;;;;;;34.45;11.57;;;9.40;99.90;;;;;;5045681;28;20056;-72
2023/12/13 08:48:54;;;;;;;34.15;11.60;;;9.40;99.90;;;;;;5039491;28;20114;-72
2023/12/13 08:51:20;;;;;;;34.38;10.82;;;9.50;99.90;;;;;;5043486;28;20562;-71
2023/12/13 08:53:48;;;;;;;28.55;10.73;;;9.50;99.90;;;;;;5035823;28;20040;-72
2023/12/13 08:56:15;;;;;;;31.92;11.82;;;9.50;99.90;;;;;;5043014;28;20028;-71
2023/12/13 08:58:41;;;;;;;29.85;10.90;;;9.50;99.90;;;;;;5045010;28;20025;-71
2023/12/13 09:01:07;;;;;;;35.95;11.60;;;9.50;99.90;;;;;;5044970;28;20031;-71
2023/12/13 09:03:32;;;;;;;31.98;10.80;;;9.50;99.90;;;;;;5044997;28;20467;-72
2023/12/13 09:05:58;;;;;;;28.70;10.18;;;9.50;99.90;;;;;;5044953;28;20074;-72
2023/12/13 09:08:24;;;;;;;28.52;10.93;;;9.50;99.90;;;;;;5051670;28;20025;-71
2023/12/13 09:10:49;;;;;;;24.92;9.93;;;9.50;99.90;;;;;;5046092;28;20078;-72
2023/12/13 09:13:15;;;;;;;29.70;9.77;;;9.50;99.90;;;;;;5046474;28;20059;-71
2023/12/13 09:15:42;;;;;;;34.05;10.07;;;9.50;99.90;;;;;;5046633;28;20032;-72
2023/12/13 09:18:08;;;;;;;27.58;10.55;;;9.50;99.90;;;;;;5046575;28;20048;-71
2023/12/13 09:20:34;;;;;;;27.75;10.38;;;9.50;99.90;;;;;;5045989;28;20530;-71
2023/12/13 09:23:00;;;;;;;33.95;10.65;;;9.50;99.90;;;;;;5046209;28;20025;-72
2023/12/13 09:25:25;;;;;;;30.52;10.57;;;9.50;99.90;;;;;;5042133;28;20587;-72
2023/12/13 09:27:51;;;;;;;26.38;9.55;;;9.50;99.90;;;;;;5044429;28;20079;-71
2023/12/13 09:30:17;;;;;;;33.65;10.95;;;9.50;99.90;;;;;;5046562;28;20021;-71
2023/12/13 09:32:43;;;;;;;27.73;9.80;;;9.50;99.90;;;;;;5046005;28;20397;-71
2023/12/13 09:35:09;;;;;;;27.73;9.77;;;9.50;99.90;;;;;;5044921;28;20037;-72
2023/12/13 09:37:35;;;;;;;28.60;10.00;;;9.50;99.90;;;;;;5045696;28;20250;-71
2023/12/13 09:40:00;;;;;;;31.48;10.30;;;9.50;99.90;;;;;;5044934;28;20028;-71
2023/12/13 09:42:26;;;;;;;29.10;11.13;;;9.60;99.90;;;;;;5044506;28;20021;-72
2023/12/13 09:44:55;;;;;;;28.45;10.43;;;9.50;99.90;;;;;;5044913;28;20017;-72
2023/12/13 09:47:23;;;;;;;30.33;10.73;;;9.60;99.90;;;;;;5045831;28;20025;-72
2023/12/13 09:49:52;;;;;;;34.03;11.85;;;9.60;99.90;;;;;;5045815;28;20025;-71
2023/12/13 09:52:20;;;;;;;31.73;11.30;;;9.60;99.90;;;;;;5044563;28;20025;-71
2023/12/13 09:54:46;;;;;;;35.47;11.75;;;9.60;99.90;;;;;;5032273;28;20029;-71
2023/12/13 09:57:12;;;;;;;34.13;11.90;;;9.60;99.90;;;;;;5046012;28;20078;-72
2023/12/13 09:59:38;;;;;;;26.25;11.35;;;9.60;99.90;;;;;;5046156;28;20017;-71
2023/12/13 10:02:13;;;;;;;30.08;11.57;;;9.60;99.90;;;;;;5045663;28;20032;-72
2023/12/13 10:04:39;;;;;;;32.65;11.90;;;9.70;99.90;;;;;;5046083;28;20021;-72
2023/12/13 10:07:08;;;;;;;26.30;10.43;;;9.70;99.90;;;;;;5045847;28;20021;-72
2023/12/13 10:09:34;;;;;;;36.10;11.57;;;9.70;99.90;;;;;;5046098;28;20116;-71
2023/12/13 10:12:00;;;;;;;27.55;11.27;;;9.70;99.90;;;;;;5045483;28;20048;-72
2023/12/13 10:14:26;;;;;;;38.20;12.43;;;9.70;99.90;;;;;;5046113;28;20119;-71
2023/12/13 10:16:53;;;;;;;33.63;11.45;;;9.80;99.90;;;;;;5031466;28;20545;-71
2023/12/13 10:19:19;;;;;;;34.10;12.30;;;9.80;99.90;;;;;;5046258;28;20086;-71
2023/12/13 10:21:48;;;;;;;34.22;12.35;;;9.80;99.90;;;;;;5046546;28;20024;-71
2023/12/13 10:24:15;;;;;;;36.13;11.48;;;9.80;99.90;;;;;;5048318;28;20029;-72
2023/12/13 10:26:41;;;;;;;36.13;12.50;;;9.80;99.90;;;;;;5040298;28;20021;-72
2023/12/13 10:29:07;;;;;;;19.70;9.07;;;9.80;99.90;;;;;;5049322;28;20024;-71
2023/12/13 10:31:33;;;;;;;20.20;7.63;;;9.80;99.90;;;;;;5042226;28;20029;-72
2023/12/13 10:33:59;;;;;;;15.05;6.03;;;9.70;99.90;;;;;;5049955;28;20166;-72
2023/12/13 10:36:26;;;;;;;14.98;6.13;;;9.60;99.90;;;;;;5047555;28;20530;-72
2023/12/13 10:38:53;;;;;;;14.07;7.00;;;9.60;99.90;;;;;;5037158;28;20070;-72
2023/12/13 10:41:23;;;;;;;15.20;6.45;;;9.50;99.90;;;;;;5040384;28;20045;-72
2023/12/13 10:43:51;;;;;;;15.05;6.05;;;9.50;99.90;;;;;;5048589;28;20016;-72
2023/12/13 10:46:17;;;;;;;14.00;5.78;;;9.50;99.90;;;;;;5044722;28;20025;-71
2023/12/13 10:48:44;;;;;;;17.35;6.60;;;9.50;99.90;;;;;;5049053;28;20024;-72
2023/12/13 10:51:10;;;;;;;17.10;7.13;;;9.50;99.90;;;;;;5047517;28;20112;-72
2023/12/13 10:53:37;;;;;;;19.48;7.13;;;9.50;99.90;;;;;;5048521;28;20020;-71
2023/12/13 10:56:04;;;;;;;14.10;6.07;;;9.50;99.90;;;;;;5049218;28;20033;-71
2023/12/13 10:58:30;;;;;;;15.85;5.95;;;9.50;99.90;;;;;;5047097;28;20060;-72
2023/12/13 11:00:57;;;;;;;13.65;5.57;;;9.50;99.90;;;;;;5043446;28;20056;-71
2023/12/13 11:04:01;;;;;;;10.80;5.00;;;9.50;99.90;;;;;;5043003;28;20060;-71
2023/12/13 11:06:27;;;;;;;13.02;5.00;;;9.40;99.90;;;;;;5035916;28;20040;-71
2023/12/13 11:08:52;;;;;;;12.23;4.68;;;9.40;99.90;;;;;;5042955;28;20089;-71
2023/12/13 11:11:18;;;;;;;11.88;4.60;;;9.40;99.90;;;;;;5044471;28;20013;-71
2023/12/13 11:13:48;;;;;;;15.00;4.57;;;9.40;99.90;;;;;;5048485;28;20024;-71
2023/12/13 11:16:18;;;;;;;10.13;4.10;;;9.30;99.90;;;;;;5048289;28;20013;-71
2023/12/13 11:18:45;;;;;;;11.98;4.50;;;9.30;99.90;;;;;;5048737;28;20028;-71
2023/12/13 11:21:19;;;;;;;8.85;3.75;;;9.30;99.90;;;;;;5041928;28;20032;-71
2023/12/13 11:23:48;;;;;;;13.65;4.30;;;9.30;99.90;;;;;;5061972;28;20029;-71
2023/12/13 11:26:18;;;;;;;14.18;4.53;;;9.40;99.90;;;;;;5048319;28;20359;-71
2023/12/13 11:28:52;;;;;;;13.43;4.72;;;9.40;99.90;;;;;;5046821;28;20032;-71
2023/12/13 11:31:24;;;;;;;13.15;4.88;;;9.40;99.90;;;;;;5048166;28;20029;-71
2023/12/13 11:33:57;;;;;;;15.30;4.82;;;9.30;99.90;;;;;;5047453;28;20025;-71
2023/12/13 11:36:24;;;;;;;14.85;5.70;;;9.40;99.90;;;;;;5047940;28;20127;-71
2023/12/13 11:38:52;;;;;;;13.50;5.40;;;9.40;99.90;;;;;;5047714;28;20047;-71
2023/12/13 11:41:18;;;;;;;22.17;6.63;;;9.40;99.90;;;;;;5046908;28;20070;-71
2023/12/13 11:43:45;;;;;;;17.77;6.65;;;9.40;99.90;;;;;;5046583;28;20021;-71
2023/12/13 11:46:11;;;;;;;22.58;7.07;;;9.40;99.90;;;;;;5046713;28;20599;-71
2023/12/13 11:48:37;;;;;;;20.40;6.97;;;9.40;99.90;;;;;;5048034;28;20045;-71
2023/12/13 11:51:03;;;;;;;20.15;6.95;;;9.50;99.90;;;;;;5047830;28;20055;-70
2023/12/13 11:53:29;;;;;;;20.05;7.65;;;9.50;99.90;;;;;;5047887;28;20013;-71
2023/12/13 11:55:57;;;;;;;19.55;7.03;;;9.60;99.90;;;;;;5047922;28;20044;-71
2023/12/13 11:58:23;;;;;;;27.73;12.00;;;9.60;99.90;;;;;;5047579;28;20021;-71
2023/12/13 12:00:48;;;;;;;22.30;11.35;;;9.60;99.90;;;;;;5047975;28;20029;-71
2023/12/13 12:03:14;;;;;;;24.25;10.18;;;9.60;99.90;;;;;;5044406;28;20029;-70
2023/12/13 12:05:43;;;;;;;19.17;8.23;;;9.60;99.90;;;;;;5036165;28;20049;-71
2023/12/13 12:08:09;;;;;;;20.80;7.63;;;9.60;99.90;;;;;;5045855;28;20036;-71
2023/12/13 12:10:35;;;;;;;22.20;6.93;;;9.60;99.90;;;;;;5045176;28;20078;-71
2023/12/13 12:13:02;;;;;;;15.18;5.88;;;9.60;99.90;;;;;;5046779;28;20033;-71
2023/12/13 12:15:28;;;;;;;18.88;6.95;;;9.70;99.90;;;;;;5044201;28;20032;-71
2023/12/13 12:17:57;;;;;;;19.73;7.40;;;9.70;99.90;;;;;;5047837;28;20497;-71
2023/12/13 12:20:26;;;;;;;21.35;8.43;;;9.70;99.90;;;;;;5048723;28;20086;-71
2023/12/13 12:22:52;;;;;;;17.85;7.35;;;9.70;99.90;;;;;;5043621;28;20017;-71
2023/12/13 12:25:18;;;;;;;15.25;6.40;;;9.70;99.90;;;;;;5040913;28;20112;-71
2023/12/13 12:27:50;;;;;;;21.77;6.90;;;9.70;99.90;;;;;;5036340;28;20018;-71
2023/12/13 12:30:17;;;;;;;18.27;6.13;;;9.80;99.90;;;;;;5044816;28;20032;-71
2023/12/13 12:32:43;;;;;;;18.63;7.15;;;9.80;99.90;;;;;;5046123;28;20107;-71
2023/12/13 12:35:09;;;;;;;22.10;6.60;;;9.80;99.90;;;;;;5034760;28;20240;-71
2023/12/13 12:37:35;;;;;;;20.67;7.18;;;9.80;99.90;;;;;;5041395;28;20128;-71
2023/12/13 12:40:03;;;;;;;22.05;7.43;;;9.90;99.90;;;;;;5044801;28;20537;-71